Time;durP1;ratioP1;P1;durP2;ratioP2;P2;SDS_P1;SDS_P2;PMS_P1;PMS_P2;Temp;Humidity;BMP_temperature;BMP_pressure;BME280_temperature;BME280_humidity;BME280_pressure;Samples;Min_cycle;Max_cycle;Signal;HPM_P1;HPM_P2
2023/08/18 00:01:31;;;;;;;4.68;4.18;;;;;;;;;;4446042;32;317263;-82
2023/08/18 00:03:58;;;;;;;7.10;4.10;;;;;;;;;;4436178;32;346662;-82
2023/08/18 00:06:26;;;;;;;7.37;4.35;;;;;;;;;;4447065;32;317190;-82
2023/08/18 00:08:53;;;;;;;10.10;4.45;;;;;;;;;;4437266;32;317320;-82
2023/08/18 00:11:19;;;;;;;7.90;3.97;;;;;;;;;;4445779;32;317893;-82
2023/08/18 00:13:46;;;;;;;4.03;3.50;;;;;;;;;;4434309;32;356796;-82
2023/08/18 00:16:13;;;;;;;6.07;3.47;;;;;;;;;;4446923;32;317156;-82
2023/08/18 00:18:40;;;;;;;6.85;3.87;;;;;;;;;;4434767;32;350804;-83
2023/08/18 00:21:07;;;;;;;12.32;4.20;;;;;;;;;;4446856;32;317249;-82
2023/08/18 00:23:35;;;;;;;6.28;3.92;;;;;;;;;;4445411;32;318277;-83
2023/08/18 00:26:01;;;;;;;6.05;4.07;;;;;;;;;;4432619;32;417964;-83
2023/08/18 00:28:28;;;;;;;8.15;4.30;;;;;;;;;;4444167;32;351122;-82
2023/08/18 00:30:55;;;;;;;6.72;4.07;;;;;;;;;;4437054;32;316393;-82
2023/08/18 00:33:22;;;;;;;11.43;4.40;;;;;;;;;;4446873;32;316991;-82
2023/08/18 00:35:48;;;;;;;6.62;3.90;;;;;;;;;;4435563;32;317476;-82
2023/08/18 00:38:15;;;;;;;5.40;3.75;;;;;;;;;;4446740;32;317246;-82
2023/08/18 00:40:43;;;;;;;9.15;3.97;;;;;;;;;;4436843;32;317101;-82
2023/08/18 00:43:10;;;;;;;5.95;3.83;;;;;;;;;;4446255;32;317205;-82
2023/08/18 00:45:37;;;;;;;4.65;3.87;;;;;;;;;;4435070;32;317167;-83
2023/08/18 00:48:04;;;;;;;6.53;4.53;;;;;;;;;;4446690;32;317573;-82
2023/08/18 00:50:31;;;;;;;5.12;4.30;;;;;;;;;;4446521;32;316740;-82
2023/08/18 00:52:59;;;;;;;7.70;4.75;;;;;;;;;;4436603;32;317555;-82
2023/08/18 00:55:27;;;;;;;5.70;4.40;;;;;;;;;;4446750;32;317082;-82
2023/08/18 00:57:57;;;;;;;7.37;4.20;;;;;;;;;;4435873;32;317819;-82
2023/08/18 01:00:24;;;;;;;6.97;4.53;;;;;;;;;;4445702;32;316670;-82
2023/08/18 01:02:51;;;;;;;5.12;4.15;;;;;;;;;;4435014;32;317334;-82
2023/08/18 01:05:18;;;;;;;5.65;4.03;;;;;;;;;;4445204;32;317615;-82
2023/08/18 01:07:45;;;;;;;5.57;4.10;;;;;;;;;;4435080;32;317114;-82
2023/08/18 01:10:12;;;;;;;5.55;4.40;;;;;;;;;;4446150;32;317481;-82
2023/08/18 01:12:46;;;;;;;5.60;4.43;;;;;;;;;;4435758;32;317352;-83
2023/08/18 01:15:18;;;;;;;9.57;4.50;;;;;;;;;;4446416;32;316554;-83
2023/08/18 01:17:50;;;;;;;6.57;3.97;;;;;;;;;;4426942;32;316588;-83
2023/08/18 01:20:18;;;;;;;6.97;4.60;;;;;;;;;;4446287;32;317201;-83
2023/08/18 01:22:46;;;;;;;32.72;5.40;;;;;;;;;;4434501;32;317406;-83
2023/08/18 01:25:14;;;;;;;12.15;4.12;;;;;;;;;;4460268;32;317696;-82
2023/08/18 01:27:41;;;;;;;4.85;3.83;;;;;;;;;;4450094;32;318122;-83
2023/08/18 01:30:08;;;;;;;8.30;4.50;;;;;;;;;;4460319;32;317455;-82
2023/08/18 01:32:41;;;;;;;7.12;4.05;;;;;;;;;;4451319;32;316784;-83
2023/08/18 01:35:11;;;;;;;6.30;3.83;;;;;;;;;;4460473;32;317356;-82
2023/08/18 01:37:38;;;;;;;9.68;4.25;;;;;;;;;;4450289;32;317125;-83
2023/08/18 01:40:08;;;;;;;5.10;4.22;;;;;;;;;;4461419;32;317109;-83
2023/08/18 01:42:37;;;;;;;6.07;3.87;;;;;;;;;;4457146;32;317211;-83
2023/08/18 01:45:04;;;;;;;7.70;4.47;;;;;;;;;;4460282;32;317343;-83
2023/08/18 01:47:31;;;;;;;9.18;4.47;;;;;;;;;;4461211;32;316707;-82
2023/08/18 01:49:57;;;;;;;8.15;4.20;;;;;;;;;;4450288;32;317113;-83
2023/08/18 01:52:24;;;;;;;8.57;4.57;;;;;;;;;;4460756;32;331747;-83
2023/08/18 01:54:52;;;;;;;8.75;4.60;;;;;;;;;;4446993;32;316993;-83
2023/08/18 01:57:19;;;;;;;4.97;4.15;;;;;;;;;;4445656;32;317194;-83
2023/08/18 01:59:47;;;;;;;7.90;4.43;;;;;;;;;;4435680;32;317135;-83
2023/08/18 02:02:14;;;;;;;6.50;4.97;;;;;;;;;;4445300;32;330078;-82
2023/08/18 02:04:41;;;;;;;6.03;4.12;;;;;;;;;;4435427;32;316959;-83
2023/08/18 02:07:07;;;;;;;8.95;5.32;;;;;;;;;;4444399;32;317344;-83
2023/08/18 02:09:35;;;;;;;5.75;4.30;;;;;;;;;;4445500;32;317085;-83
2023/08/18 02:12:02;;;;;;;7.78;4.50;;;;;;;;;;4432452;32;418184;-82
2023/08/18 02:14:29;;;;;;;14.55;5.05;;;;;;;;;;4444335;32;317132;-82
2023/08/18 02:16:57;;;;;;;7.07;4.90;;;;;;;;;;4434123;32;317710;-82
2023/08/18 02:19:24;;;;;;;5.40;4.22;;;;;;;;;;4445068;32;317186;-82
2023/08/18 02:21:51;;;;;;;5.55;4.57;;;;;;;;;;4434105;32;317163;-82
2023/08/18 02:24:17;;;;;;;10.75;4.60;;;;;;;;;;4444239;32;333152;-84
2023/08/18 02:26:44;;;;;;;5.70;4.90;;;;;;;;;;4435090;32;318109;-82
2023/08/18 02:29:11;;;;;;;8.98;5.12;;;;;;;;;;4444180;32;317602;-82
2023/08/18 02:31:37;;;;;;;9.55;4.60;;;;;;;;;;4433404;32;317532;-82
2023/08/18 02:34:05;;;;;;;7.22;4.35;;;;;;;;;;4444975;32;316554;-82
2023/08/18 02:36:32;;;;;;;7.18;4.62;;;;;;;;;;4445114;32;317162;-82
2023/08/18 02:38:59;;;;;;;7.60;4.97;;;;;;;;;;4435236;32;317366;-82
2023/08/18 02:41:26;;;;;;;8.43;4.87;;;;;;;;;;4444200;32;316496;-82
2023/08/18 02:43:52;;;;;;;7.03;4.80;;;;;;;;;;4433430;32;320812;-82
2023/08/18 02:46:19;;;;;;;11.18;4.57;;;;;;;;;;4445043;32;317402;-82
2023/08/18 02:48:46;;;;;;;5.47;4.37;;;;;;;;;;4434786;32;318334;-82
2023/08/18 02:51:14;;;;;;;7.82;4.45;;;;;;;;;;4444936;32;317050;-82
2023/08/18 02:53:42;;;;;;;4.57;3.62;;;;;;;;;;4435014;32;316536;-82
2023/08/18 02:56:09;;;;;;;6.53;4.72;;;;;;;;;;4456729;32;317292;-82
2023/08/18 02:58:36;;;;;;;9.57;4.07;;;;;;;;;;4447641;32;335253;-82
2023/08/18 03:01:05;;;;;;;7.32;4.20;;;;;;;;;;4460538;32;316992;-82
2023/08/18 03:03:32;;;;;;;6.10;4.03;;;;;;;;;;4459662;32;317196;-82
2023/08/18 03:06:00;;;;;;;7.45;4.43;;;;;;;;;;4449398;32;317396;-82
2023/08/18 03:08:28;;;;;;;8.73;4.93;;;;;;;;;;4459659;32;317330;-83
2023/08/18 03:10:57;;;;;;;21.08;10.15;;;;;;;;;;4449648;32;317627;-83
2023/08/18 03:13:24;;;;;;;21.70;11.20;;;;;;;;;;4459083;32;319600;-83
2023/08/18 03:15:50;;;;;;;10.73;8.55;;;;;;;;;;4444694;32;319563;-82
2023/08/18 03:18:17;;;;;;;10.70;8.90;;;;;;;;;;4444734;32;318223;-82
2023/08/18 03:20:46;;;;;;;16.27;12.27;;;;;;;;;;4434406;32;318465;-82
2023/08/18 03:23:15;;;;;;;13.20;10.35;;;;;;;;;;4443620;32;318709;-83
2023/08/18 03:25:43;;;;;;;12.85;10.50;;;;;;;;;;4434480;32;319325;-82
2023/08/18 03:28:11;;;;;;;12.95;9.85;;;;;;;;;;4444167;32;319221;-82
2023/08/18 03:30:38;;;;;;;18.15;10.05;;;;;;;;;;4433140;32;364313;-84
2023/08/18 03:33:05;;;;;;;16.35;9.82;;;;;;;;;;4444409;32;319244;-81
2023/08/18 03:35:35;;;;;;;10.95;8.60;;;;;;;;;;4443108;32;318373;-82
2023/08/18 03:38:01;;;;;;;11.77;8.90;;;;;;;;;;4431224;32;417265;-82
2023/08/18 03:40:28;;;;;;;8.77;7.62;;;;;;;;;;4444272;32;318445;-82
2023/08/18 03:42:56;;;;;;;9.63;6.50;;;;;;;;;;4425316;32;317201;-83
2023/08/18 03:45:23;;;;;;;7.20;5.35;;;;;;;;;;4443434;32;317297;-82
2023/08/18 03:47:51;;;;;;;12.15;5.47;;;;;;;;;;4433249;32;317608;-83
2023/08/18 03:50:19;;;;;;;9.90;5.35;;;;;;;;;;4443369;32;318297;-82
2023/08/18 03:52:45;;;;;;;14.63;5.70;;;;;;;;;;4434432;32;317563;-82
2023/08/18 03:55:13;;;;;;;8.88;5.47;;;;;;;;;;4444398;32;318307;-83
2023/08/18 03:57:39;;;;;;;8.32;6.03;;;;;;;;;;4432888;32;354985;-82
2023/08/18 04:00:10;;;;;;;13.25;5.18;;;;;;;;;;4444314;32;317713;-82
2023/08/18 04:02:36;;;;;;;12.65;5.78;;;;;;;;;;4432578;32;375006;-82
2023/08/18 04:05:03;;;;;;;8.32;4.80;;;;;;;;;;4444088;32;318288;-82
2023/08/18 04:07:31;;;;;;;7.18;4.82;;;;;;;;;;4443995;32;317377;-82
2023/08/18 04:09:57;;;;;;;11.23;5.45;;;;;;;;;;4434267;32;317373;-82
2023/08/18 04:12:24;;;;;;;8.43;5.40;;;;;;;;;;4443206;32;318296;-81
2023/08/18 04:14:51;;;;;;;11.25;5.45;;;;;;;;;;4433113;32;317327;-82
2023/08/18 04:17:19;;;;;;;10.07;5.75;;;;;;;;;;4442974;32;318253;-82
2023/08/18 04:19:46;;;;;;;9.38;5.55;;;;;;;;;;4432773;32;318525;-82
2023/08/18 04:22:13;;;;;;;8.95;4.78;;;;;;;;;;4442797;32;317199;-83
2023/08/18 04:24:40;;;;;;;9.23;5.78;;;;;;;;;;4433366;32;317499;-82
2023/08/18 04:27:06;;;;;;;7.72;4.95;;;;;;;;;;4443613;32;316422;-82
2023/08/18 04:29:33;;;;;;;9.07;6.03;;;;;;;;;;4444013;32;317419;-82
2023/08/18 04:32:00;;;;;;;9.50;6.00;;;;;;;;;;4429967;32;418598;-82
2023/08/18 04:34:29;;;;;;;16.37;6.57;;;;;;;;;;4444209;32;317050;-82
2023/08/18 04:36:55;;;;;;;11.07;6.80;;;;;;;;;;4436593;32;318314;-82
2023/08/18 04:39:22;;;;;;;11.45;6.07;;;;;;;;;;4446641;32;318204;-81
2023/08/18 04:41:49;;;;;;;10.38;6.30;;;;;;;;;;4435312;32;318615;-82
2023/08/18 04:44:16;;;;;;;10.80;7.37;;;;;;;;;;4446897;32;318390;-82
2023/08/18 04:46:42;;;;;;;8.52;7.25;;;;;;;;;;4436541;32;317753;-82
2023/08/18 04:49:09;;;;;;;12.65;7.40;;;;;;;;;;4446229;32;316564;-82
2023/08/18 04:51:37;;;;;;;8.80;6.80;;;;;;;;;;4435240;32;318272;-82
2023/08/18 04:54:04;;;;;;;10.15;6.72;;;;;;;;;;4445067;32;317050;-82
2023/08/18 04:56:31;;;;;;;15.43;11.38;;;;;;;;;;4461013;32;318743;-82
2023/08/18 04:58:58;;;;;;;12.45;7.50;;;;;;;;;;4448905;32;319336;-82
2023/08/18 05:01:25;;;;;;;13.55;7.32;;;;;;;;;;4460746;32;318165;-82
2023/08/18 05:03:51;;;;;;;20.05;10.48;;;;;;;;;;4451864;32;318499;-82
2023/08/18 05:06:19;;;;;;;13.70;7.60;;;;;;;;;;4461725;32;319230;-82
2023/08/18 05:08:47;;;;;;;10.52;6.12;;;;;;;;;;4450480;32;318147;-82
2023/08/18 05:11:14;;;;;;;10.75;5.53;;;;;;;;;;4461418;32;317749;-81
2023/08/18 05:13:42;;;;;;;9.13;6.05;;;;;;;;;;4450540;32;317518;-82
2023/08/18 05:16:09;;;;;;;11.07;5.57;;;;;;;;;;4461689;32;317073;-82
2023/08/18 05:18:36;;;;;;;11.48;6.28;;;;;;;;;;4451239;32;337960;-82
2023/08/18 05:21:03;;;;;;;8.48;6.07;;;;;;;;;;4461653;32;317864;-82
2023/08/18 05:23:31;;;;;;;11.32;6.07;;;;;;;;;;4456105;32;317116;-83
2023/08/18 05:26:00;;;;;;;8.07;6.57;;;;;;;;;;4434291;32;328737;-82
2023/08/18 05:28:28;;;;;;;13.85;6.95;;;;;;;;;;4446195;32;317311;-83
2023/08/18 05:30:54;;;;;;;12.07;6.05;;;;;;;;;;4436336;32;318261;-82
2023/08/18 05:33:21;;;;;;;15.43;7.30;;;;;;;;;;4446166;32;318724;-82
2023/08/18 05:35:48;;;;;;;13.75;6.30;;;;;;;;;;4434802;32;318581;-82
2023/08/18 05:38:15;;;;;;;15.15;6.62;;;;;;;;;;4444950;32;318799;-82
2023/08/18 05:40:43;;;;;;;6.47;5.10;;;;;;;;;;4435372;32;318449;-82
2023/08/18 05:43:12;;;;;;;15.45;5.45;;;;;;;;;;4444751;32;317338;-82
2023/08/18 05:45:39;;;;;;;7.90;5.45;;;;;;;;;;4433156;32;401349;-81
2023/08/18 05:48:06;;;;;;;13.73;5.45;;;;;;;;;;4444848;32;355224;-83
2023/08/18 05:50:34;;;;;;;9.88;6.00;;;;;;;;;;4445644;32;318825;-82
2023/08/18 05:53:03;;;;;;;12.37;5.62;;;;;;;;;;4435899;32;316566;-82
2023/08/18 05:55:31;;;;;;;14.13;5.75;;;;;;;;;;4453705;32;318559;-82
2023/08/18 05:58:00;;;;;;;12.25;6.40;;;;;;;;;;4451146;32;318483;-82
2023/08/18 06:00:28;;;;;;;13.95;6.22;;;;;;;;;;4461118;32;318509;-82
2023/08/18 06:02:55;;;;;;;16.67;6.30;;;;;;;;;;4449826;32;325585;-82
2023/08/18 06:05:25;;;;;;;14.82;6.35;;;;;;;;;;4451503;32;318441;-82
2023/08/18 06:07:52;;;;;;;11.75;6.75;;;;;;;;;;4434444;32;318335;-82
2023/08/18 06:10:19;;;;;;;12.75;6.35;;;;;;;;;;4442191;32;318231;-82
2023/08/18 06:12:46;;;;;;;10.07;5.77;;;;;;;;;;4433401;32;340968;-82
2023/08/18 06:15:12;;;;;;;17.37;6.30;;;;;;;;;;4445251;32;318405;-82
2023/08/18 06:17:40;;;;;;;14.20;5.85;;;;;;;;;;4435690;32;318951;-82
2023/08/18 06:20:08;;;;;;;10.68;6.07;;;;;;;;;;4445492;32;318552;-82
2023/08/18 06:22:35;;;;;;;14.50;6.10;;;;;;;;;;4445355;32;318479;-82
2023/08/18 06:25:01;;;;;;;8.55;5.82;;;;;;;;;;4431515;32;417677;-82
2023/08/18 06:27:28;;;;;;;12.75;6.15;;;;;;;;;;4444746;32;317049;-82
2023/08/18 06:29:55;;;;;;;12.48;6.15;;;;;;;;;;4433664;32;318875;-82
2023/08/18 06:32:22;;;;;;;8.00;5.45;;;;;;;;;;4445695;32;318779;-82
2023/08/18 06:34:51;;;;;;;18.05;5.28;;;;;;;;;;4435394;32;317596;-82
2023/08/18 06:37:17;;;;;;;14.98;5.85;;;;;;;;;;4445407;32;318662;-82
2023/08/18 06:39:44;;;;;;;7.78;4.87;;;;;;;;;;4435057;32;318729;-82
2023/08/18 06:42:11;;;;;;;11.82;6.28;;;;;;;;;;4443520;32;317258;-82
2023/08/18 06:44:37;;;;;;;8.43;5.57;;;;;;;;;;4434703;32;318555;-82
2023/08/18 06:47:05;;;;;;;17.67;5.70;;;;;;;;;;4445118;32;317189;-82
2023/08/18 06:49:32;;;;;;;16.35;5.65;;;;;;;;;;4444719;32;318319;-82
2023/08/18 06:52:00;;;;;;;10.63;5.62;;;;;;;;;;4434610;32;318334;-82
2023/08/18 06:54:27;;;;;;;9.35;5.10;;;;;;;;;;4446119;32;318100;-82
2023/08/18 06:56:53;;;;;;;10.90;4.82;;;;;;;;;;4449676;32;317427;-84
2023/08/18 06:59:20;;;;;;;8.88;5.22;;;;;;;;;;4458781;32;318325;-84
2023/08/18 07:01:47;;;;;;;6.82;5.05;;;;;;;;;;4438944;32;345068;-84
2023/08/18 07:04:13;;;;;;;9.30;4.25;;;;;;;;;;4444843;32;316858;-83
2023/08/18 07:06:45;;;;;;;7.32;4.70;;;;;;;;;;4433675;32;317183;-82
2023/08/18 07:09:13;;;;;;;11.45;4.93;;;;;;;;;;4444858;32;317103;-82
2023/08/18 07:11:40;;;;;;;6.32;4.80;;;;;;;;;;4434206;32;318244;-82
2023/08/18 07:14:07;;;;;;;5.53;4.75;;;;;;;;;;4444406;32;317177;-82
2023/08/18 07:16:33;;;;;;;11.63;4.85;;;;;;;;;;4443606;32;317308;-82
2023/08/18 07:19:00;;;;;;;8.45;5.40;;;;;;;;;;4430756;32;416951;-82
2023/08/18 07:21:27;;;;;;;7.35;4.50;;;;;;;;;;4444544;32;316843;-82
2023/08/18 07:23:53;;;;;;;9.55;5.10;;;;;;;;;;4418415;32;317630;-82
2023/08/18 07:26:22;;;;;;;5.00;4.50;;;;;;;;;;4438045;32;317222;-82
2023/08/18 07:28:48;;;;;;;11.12;5.18;;;;;;;;;;4434605;32;317301;-82
2023/08/18 07:31:15;;;;;;;9.10;4.75;;;;;;;;;;4443462;32;318726;-82
2023/08/18 07:33:43;;;;;;;9.00;5.25;;;;;;;;;;4435160;32;317119;-82
2023/08/18 07:36:10;;;;;;;16.08;4.72;;;;;;;;;;4444531;32;317271;-82
2023/08/18 07:38:37;;;;;;;9.82;4.68;;;;;;;;;;4434456;32;317617;-82
2023/08/18 07:41:03;;;;;;;8.82;5.18;;;;;;;;;;4443429;32;316772;-82
2023/08/18 07:43:32;;;;;;;7.05;4.25;;;;;;;;;;4443589;32;317349;-82
2023/08/18 07:45:58;;;;;;;7.25;4.25;;;;;;;;;;4433744;32;317604;-82
2023/08/18 07:48:25;;;;;;;6.15;4.62;;;;;;;;;;4443402;32;317295;-82
2023/08/18 07:50:52;;;;;;;4.90;4.43;;;;;;;;;;4434139;32;316759;-82
2023/08/18 07:53:19;;;;;;;6.20;3.85;;;;;;;;;;4444307;32;317279;-82
2023/08/18 07:55:46;;;;;;;12.75;4.60;;;;;;;;;;4432649;32;317413;-82
2023/08/18 07:58:13;;;;;;;6.20;4.25;;;;;;;;;;4455162;32;318267;-82
2023/08/18 08:00:41;;;;;;;5.82;4.00;;;;;;;;;;4446978;32;318308;-82
2023/08/18 08:03:08;;;;;;;6.60;4.35;;;;;;;;;;4443177;32;316314;-82
2023/08/18 08:05:35;;;;;;;8.88;3.87;;;;;;;;;;4444259;32;317494;-82
2023/08/18 08:08:03;;;;;;;9.07;4.32;;;;;;;;;;4431416;32;418014;-82
2023/08/18 08:10:30;;;;;;;6.15;3.67;;;;;;;;;;4446412;32;317133;-82
2023/08/18 08:12:57;;;;;;;7.47;4.47;;;;;;;;;;4436938;32;317248;-82
2023/08/18 08:15:24;;;;;;;9.80;4.15;;;;;;;;;;4446000;32;317450;-82
2023/08/18 08:17:52;;;;;;;5.85;3.95;;;;;;;;;;4437449;32;317673;-82
2023/08/18 08:20:18;;;;;;;5.80;4.05;;;;;;;;;;4447177;32;317070;-82
2023/08/18 08:22:47;;;;;;;11.35;4.75;;;;;;;;;;4435905;32;317530;-82
2023/08/18 08:25:14;;;;;;;8.75;4.53;;;;;;;;;;4444576;32;325833;-82
2023/08/18 08:27:41;;;;;;;5.23;3.97;;;;;;;;;;4435283;32;327020;-82
2023/08/18 08:30:11;;;;;;;11.98;4.07;;;;;;;;;;4445754;32;349763;-82
2023/08/18 08:32:38;;;;;;;14.77;4.65;;;;;;;;;;4435961;32;318139;-82
2023/08/18 08:35:07;;;;;;;8.45;4.87;;;;;;;;;;4446883;32;318456;-82
2023/08/18 08:37:34;;;;;;;10.18;3.92;;;;;;;;;;4446523;32;316504;-82
2023/08/18 08:40:01;;;;;;;7.12;4.15;;;;;;;;;;4436153;32;318312;-82
2023/08/18 08:42:27;;;;;;;6.03;4.15;;;;;;;;;;4445556;32;317214;-82
2023/08/18 08:44:54;;;;;;;7.93;4.23;;;;;;;;;;4435147;32;322858;-82
2023/08/18 08:47:21;;;;;;;5.20;3.30;;;;;;;;;;4446839;32;317145;-82
2023/08/18 08:49:57;;;;;;;10.27;3.92;;;;;;;;;;4436753;32;317490;-82
2023/08/18 08:52:26;;;;;;;8.05;4.03;;;;;;;;;;4446049;32;317539;-81
2023/08/18 08:54:59;;;;;;;4.60;3.40;;;;;;;;;;4439129;32;319810;-82
2023/08/18 08:57:26;;;;;;;4.82;3.92;;;;;;;;;;4461209;32;317171;-82
2023/08/18 08:59:54;;;;;;;6.60;3.95;;;;;;;;;;4451834;32;317330;-82
2023/08/18 09:02:22;;;;;;;13.55;4.05;;;;;;;;;;4447065;32;317247;-82
2023/08/18 09:04:49;;;;;;;11.27;3.78;;;;;;;;;;4435379;32;317837;-82
2023/08/18 09:07:15;;;;;;;18.08;3.90;;;;;;;;;;4445218;32;318523;-82
2023/08/18 09:09:44;;;;;;;10.27;3.75;;;;;;;;;;4435801;32;318168;-82
2023/08/18 09:12:11;;;;;;;5.75;4.07;;;;;;;;;;4446342;32;318238;-82
2023/08/18 09:14:40;;;;;;;6.45;3.58;;;;;;;;;;4434256;32;317093;-81
2023/08/18 09:17:07;;;;;;;6.05;3.90;;;;;;;;;;4445663;32;317344;-83
2023/08/18 09:19:34;;;;;;;14.43;5.20;;;;;;;;;;4445090;32;317107;-83
2023/08/18 09:22:04;;;;;;;11.80;4.47;;;;;;;;;;4430392;32;419097;-82
2023/08/18 09:24:33;;;;;;;6.07;4.22;;;;;;;;;;4444090;32;318385;-82
2023/08/18 09:27:08;;;;;;;6.35;3.58;;;;;;;;;;4434978;32;317063;-82
2023/08/18 09:29:35;;;;;;;9.02;3.30;;;;;;;;;;4444997;32;317171;-83
2023/08/18 09:32:02;;;;;;;5.93;3.47;;;;;;;;;;4432976;32;417887;-82
2023/08/18 09:34:31;;;;;;;4.05;2.95;;;;;;;;;;4445906;32;316993;-83
2023/08/18 09:36:58;;;;;;;6.85;3.87;;;;;;;;;;4434915;32;317703;-82
2023/08/18 09:39:26;;;;;;;10.48;3.90;;;;;;;;;;4445475;32;317091;-83
2023/08/18 09:41:54;;;;;;;14.30;3.03;;;;;;;;;;4434715;32;318216;-82
2023/08/18 09:44:22;;;;;;;6.00;3.42;;;;;;;;;;4445500;32;318333;-81
2023/08/18 09:46:51;;;;;;;14.40;3.12;;;;;;;;;;4433701;32;339430;-82
2023/08/18 09:49:19;;;;;;;7.57;3.47;;;;;;;;;;4444323;32;318165;-82
2023/08/18 09:51:47;;;;;;;8.48;3.17;;;;;;;;;;4435638;32;317504;-81
2023/08/18 09:54:18;;;;;;;6.30;2.95;;;;;;;;;;4444794;32;317260;-82
2023/08/18 09:56:47;;;;;;;5.15;3.37;;;;;;;;;;4435608;32;317125;-82
2023/08/18 09:59:20;;;;;;;9.82;3.45;;;;;;;;;;4459913;32;316787;-82
2023/08/18 10:01:51;;;;;;;7.70;3.78;;;;;;;;;;4450898;32;317180;-82
2023/08/18 10:04:21;;;;;;;4.75;3.50;;;;;;;;;;4460913;32;316763;-82
2023/08/18 10:06:50;;;;;;;5.50;3.42;;;;;;;;;;4451264;32;317603;-82
2023/08/18 10:09:17;;;;;;;7.97;3.85;;;;;;;;;;4459609;32;316424;-82
2023/08/18 10:11:45;;;;;;;6.07;3.65;;;;;;;;;;4450798;32;317058;-82
2023/08/18 10:14:12;;;;;;;8.07;3.95;;;;;;;;;;4460932;32;317228;-82
2023/08/18 10:16:39;;;;;;;5.82;3.00;;;;;;;;;;4449661;32;317184;-82
2023/08/18 10:19:07;;;;;;;7.93;3.58;;;;;;;;;;4459722;32;317011;-82
2023/08/18 10:21:33;;;;;;;4.20;2.95;;;;;;;;;;4459831;32;316959;-82
2023/08/18 10:24:03;;;;;;;4.47;3.12;;;;;;;;;;4438136;32;390385;-82
2023/08/18 10:26:33;;;;;;;5.95;3.17;;;;;;;;;;4443578;32;317237;-82
2023/08/18 10:29:15;;;;;;;7.32;2.80;;;;;;;;;;4433816;32;316940;-82
2023/08/18 10:31:47;;;;;;;5.35;3.20;;;;;;;;;;4434922;32;317203;-83
2023/08/18 10:34:21;;;;;;;4.85;2.70;;;;;;;;;;4445051;32;316645;-82
2023/08/18 10:36:48;;;;;;;4.35;2.85;;;;;;;;;;4434507;32;317465;-82
2023/08/18 10:39:24;;;;;;;6.18;2.83;;;;;;;;;;4443790;32;317278;-82
2023/08/18 10:42:05;;;;;;;3.67;2.80;;;;;;;;;;4434375;32;329787;-82
2023/08/18 10:44:32;;;;;;;4.55;3.20;;;;;;;;;;4445285;32;317718;-82
2023/08/18 10:46:59;;;;;;;6.68;3.37;;;;;;;;;;4434498;32;317498;-83
2023/08/18 10:49:27;;;;;;;3.87;2.85;;;;;;;;;;4444422;32;317394;-82
2023/08/18 10:51:54;;;;;;;7.87;3.62;;;;;;;;;;4434471;32;317272;-82
2023/08/18 10:54:23;;;;;;;13.55;3.17;;;;;;;;;;4453572;32;316574;-82
2023/08/18 10:56:49;;;;;;;6.93;3.10;;;;;;;;;;4434380;32;318529;-82
2023/08/18 10:59:17;;;;;;;3.67;2.97;;;;;;;;;;4444781;32;317064;-82
2023/08/18 11:01:44;;;;;;;4.47;3.10;;;;;;;;;;4434889;32;317079;-82
2023/08/18 11:04:11;;;;;;;4.65;3.10;;;;;;;;;;4444589;32;317309;-82
2023/08/18 11:06:40;;;;;;;5.40;3.03;;;;;;;;;;4434848;32;317462;-83
2023/08/18 11:09:07;;;;;;;4.32;2.65;;;;;;;;;;4444294;32;317397;-82
2023/08/18 11:11:34;;;;;;;7.78;2.83;;;;;;;;;;4444515;32;317252;-83
2023/08/18 11:14:01;;;;;;;7.18;2.85;;;;;;;;;;4431746;32;416759;-82
2023/08/18 11:16:27;;;;;;;11.18;3.22;;;;;;;;;;4443196;32;317603;-82
2023/08/18 11:18:54;;;;;;;5.47;2.70;;;;;;;;;;4434552;32;318099;-82
2023/08/18 11:21:22;;;;;;;4.15;2.85;;;;;;;;;;4444643;32;317220;-82
2023/08/18 11:23:50;;;;;;;4.50;3.20;;;;;;;;;;4432741;32;317341;-82
2023/08/18 11:26:17;;;;;;;10.73;3.15;;;;;;;;;;4443177;32;317628;-82
2023/08/18 11:28:43;;;;;;;6.20;3.53;;;;;;;;;;4433137;32;320533;-82
2023/08/18 11:31:13;;;;;;;4.20;2.65;;;;;;;;;;4444274;32;317118;-82
2023/08/18 11:33:40;;;;;;;6.85;3.15;;;;;;;;;;4434605;32;317240;-82
2023/08/18 11:36:11;;;;;;;7.12;3.15;;;;;;;;;;4444528;32;317459;-83
2023/08/18 11:38:39;;;;;;;12.48;3.12;;;;;;;;;;4432985;32;316443;-82
2023/08/18 11:41:07;;;;;;;10.95;3.20;;;;;;;;;;4442937;32;318407;-82
2023/08/18 11:43:34;;;;;;;13.62;3.78;;;;;;;;;;4443642;32;318430;-82
2023/08/18 11:46:01;;;;;;;8.07;2.67;;;;;;;;;;4434440;32;417286;-82
2023/08/18 11:48:29;;;;;;;6.97;3.20;;;;;;;;;;4446343;32;316982;-82
2023/08/18 11:50:56;;;;;;;6.37;2.85;;;;;;;;;;4436255;32;340768;-83
2023/08/18 11:53:25;;;;;;;7.62;3.90;;;;;;;;;;4447243;32;317298;-82
2023/08/18 11:55:52;;;;;;;5.07;2.67;;;;;;;;;;4446960;32;317198;-83
2023/08/18 11:58:24;;;;;;;5.87;2.83;;;;;;;;;;4463008;32;317149;-81
2023/08/18 12:00:51;;;;;;;3.80;2.83;;;;;;;;;;4452889;32;317147;-82
2023/08/18 12:03:24;;;;;;;7.72;3.17;;;;;;;;;;4462869;32;317575;-84
2023/08/18 12:05:51;;;;;;;6.53;2.83;;;;;;;;;;4451691;32;317542;-83
2023/08/18 12:08:18;;;;;;;7.78;2.90;;;;;;;;;;4461671;32;317170;-83
2023/08/18 12:10:48;;;;;;;8.80;2.77;;;;;;;;;;4451070;32;325983;-82
2023/08/18 12:13:15;;;;;;;8.57;3.10;;;;;;;;;;4461678;32;338650;-82
2023/08/18 12:15:43;;;;;;;5.50;2.97;;;;;;;;;;4451233;32;317154;-81
2023/08/18 12:18:10;;;;;;;32.35;3.80;;;;;;;;;;4461947;32;317313;-82
2023/08/18 12:20:37;;;;;;;4.22;2.28;;;;;;;;;;4449497;32;319071;-82
2023/08/18 12:23:04;;;;;;;5.18;2.05;;;;;;;;;;4457015;32;317836;-82
2023/08/18 12:25:31;;;;;;;9.82;2.92;;;;;;;;;;4444873;32;317101;-81
2023/08/18 12:27:57;;;;;;;9.30;3.25;;;;;;;;;;4437080;32;317255;-82
2023/08/18 12:30:24;;;;;;;6.45;2.80;;;;;;;;;;4446463;32;317135;-82
2023/08/18 12:32:53;;;;;;;9.30;2.60;;;;;;;;;;4436541;32;317454;-81
2023/08/18 12:35:20;;;;;;;7.60;2.97;;;;;;;;;;4446316;32;317228;-83
2023/08/18 12:37:46;;;;;;;11.18;2.65;;;;;;;;;;4435964;32;320749;-81
2023/08/18 12:40:14;;;;;;;4.30;2.75;;;;;;;;;;4445303;32;317587;-82
2023/08/18 12:42:42;;;;;;;4.12;2.70;;;;;;;;;;4436034;32;317277;-82
2023/08/18 12:45:09;;;;;;;10.75;3.53;;;;;;;;;;4446292;32;317595;-81
2023/08/18 12:47:36;;;;;;;4.97;2.35;;;;;;;;;;4451476;32;318130;-80
2023/08/18 12:50:07;;;;;;;3.85;2.75;;;;;;;;;;4461825;32;317228;-80
2023/08/18 12:52:34;;;;;;;5.72;3.20;;;;;;;;;;4461347;32;317432;-80
2023/08/18 12:55:01;;;;;;;4.22;2.55;;;;;;;;;;4441061;32;417808;-80
2023/08/18 12:57:27;;;;;;;4.40;3.22;;;;;;;;;;4442185;32;355113;-82
2023/08/18 12:59:54;;;;;;;7.47;3.17;;;;;;;;;;4435509;32;317384;-82
2023/08/18 13:02:21;;;;;;;6.43;2.90;;;;;;;;;;4444829;32;317080;-82
2023/08/18 13:04:47;;;;;;;4.53;2.70;;;;;;;;;;4433856;32;332148;-83
2023/08/18 13:07:16;;;;;;;5.60;3.00;;;;;;;;;;4446211;32;316996;-81
2023/08/18 13:09:43;;;;;;;6.47;3.05;;;;;;;;;;4434908;32;317206;-86
2023/08/18 13:12:10;;;;;;;5.65;2.95;;;;;;;;;;4446295;32;316659;-83
2023/08/18 13:14:37;;;;;;;4.80;2.95;;;;;;;;;;4436329;32;316465;-86
2023/08/18 13:17:04;;;;;;;7.85;3.30;;;;;;;;;;4445137;32;317225;-84
2023/08/18 13:19:31;;;;;;;6.85;3.15;;;;;;;;;;4445312;32;317106;-86
2023/08/18 13:21:57;;;;;;;6.85;3.25;;;;;;;;;;4435538;32;317233;-82
2023/08/18 13:24:26;;;;;;;5.45;2.67;;;;;;;;;;4445904;32;317159;-84
2023/08/18 13:26:52;;;;;;;6.20;2.70;;;;;;;;;;4435120;32;317372;-87
2023/08/18 13:29:19;;;;;;;8.20;2.65;;;;;;;;;;4445015;32;316378;-85
2023/08/18 13:31:48;;;;;;;5.15;3.00;;;;;;;;;;4434275;32;317338;-86
2023/08/18 13:34:14;;;;;;;6.00;2.47;;;;;;;;;;4444376;32;317091;-86
2023/08/18 13:36:41;;;;;;;9.05;2.75;;;;;;;;;;4435689;32;316499;-85
2023/08/18 13:39:08;;;;;;;6.55;3.20;;;;;;;;;;4445200;32;317231;-87
2023/08/18 13:41:36;;;;;;;6.03;2.55;;;;;;;;;;4444837;32;316586;-86
2023/08/18 13:44:03;;;;;;;6.15;3.00;;;;;;;;;;4432073;32;418102;-86
2023/08/18 13:46:30;;;;;;;5.12;2.75;;;;;;;;;;4444932;32;317158;-83
2023/08/18 13:48:57;;;;;;;5.18;2.50;;;;;;;;;;4435230;32;342116;-85
2023/08/18 13:51:23;;;;;;;11.55;3.45;;;;;;;;;;4445730;32;317456;-84
2023/08/18 13:53:50;;;;;;;10.55;3.25;;;;;;;;;;4435649;32;318299;-86
2023/08/18 13:56:17;;;;;;;12.40;2.42;;;;;;;;;;4457636;32;318228;-84
2023/08/18 13:58:45;;;;;;;8.02;3.20;;;;;;;;;;4451044;32;319143;-83
2023/08/18 14:01:11;;;;;;;7.72;2.53;;;;;;;;;;4461193;32;317467;-88
2023/08/18 14:03:38;;;;;;;7.05;2.72;;;;;;;;;;4451117;32;316535;-81
2023/08/18 14:06:05;;;;;;;8.13;2.75;;;;;;;;;;4459604;32;317315;-83
2023/08/18 14:08:32;;;;;;;6.37;2.85;;;;;;;;;;4460183;32;317470;-80
2023/08/18 14:10:58;;;;;;;8.25;2.78;;;;;;;;;;4451153;32;317350;-80
2023/08/18 14:13:25;;;;;;;6.78;2.62;;;;;;;;;;4459875;32;316816;-84
2023/08/18 14:15:53;;;;;;;8.50;2.85;;;;;;;;;;4449783;32;317424;-86
2023/08/18 14:18:20;;;;;;;7.82;3.20;;;;;;;;;;4459589;32;316566;-81
2023/08/18 14:20:47;;;;;;;15.90;3.22;;;;;;;;;;4450871;32;317430;-86
2023/08/18 14:23:14;;;;;;;7.32;2.55;;;;;;;;;;4455377;32;334693;-86
2023/08/18 14:25:41;;;;;;;6.82;2.95;;;;;;;;;;4432742;32;344909;-87
2023/08/18 14:28:07;;;;;;;4.85;2.55;;;;;;;;;;4445395;32;317553;-88